sensor_id;sensor_type;location;lat;lon;timestamp;temperature;humidity
8557;DHT22;4316;53.840;10.762;2023-09-18T00:00:48;19.30;1.00
8557;DHT22;4316;53.840;10.762;2023-09-18T00:03:20;19.30;1.00
8557;DHT22;4316;53.840;10.762;2023-09-18T00:05:47;19.30;1.00
8557;DHT22;4316;53.840;10.762;2023-09-18T00:08:16;19.20;1.00
8557;DHT22;4316;53.840;10.762;2023-09-18T00:10:44;19.10;1.00
8557;DHT22;4316;53.840;10.762;2023-09-18T00:13:11;19.10;1.00
8557;DHT22;4316;53.840;10.762;2023-09-18T00:15:37;19.10;1.00
8557;DHT22;4316;53.840;10.762;2023-09-18T00:18:04;19.00;1.00
8557;DHT22;4316;53.840;10.762;2023-09-18T00:20:30;19.10;1.00
8557;DHT22;4316;53.840;10.762;2023-09-18T00:22:55;19.00;1.00
8557;DHT22;4316;53.840;10.762;2023-09-18T00:25:24;19.00;1.00
8557;DHT22;4316;53.840;10.762;2023-09-18T00:27:50;18.90;1.00
8557;DHT22;4316;53.840;10.762;2023-09-18T00:30:17;19.00;1.00
8557;DHT22;4316;53.840;10.762;2023-09-18T00:32:43;19.00;1.00
8557;DHT22;4316;53.840;10.762;2023-09-18T00:35:09;19.00;1.00
8557;DHT22;4316;53.840;10.762;2023-09-18T00:37:34;19.00;1.00
8557;DHT22;4316;53.840;10.762;2023-09-18T00:40:02;19.00;1.00
8557;DHT22;4316;53.840;10.762;2023-09-18T00:42:27;19.00;1.00
8557;DHT22;4316;53.840;10.762;2023-09-18T00:44:53;19.00;1.00
8557;DHT22;4316;53.840;10.762;2023-09-18T00:47:19;19.00;1.00
8557;DHT22;4316;53.840;10.762;2023-09-18T00:49:48;19.00;1.00
8557;DHT22;4316;53.840;10.762;2023-09-18T00:52:15;19.00;1.00
8557;DHT22;4316;53.840;10.762;2023-09-18T00:54:42;18.80;1.00
8557;DHT22;4316;53.840;10.762;2023-09-18T00:57:09;18.80;1.00
8557;DHT22;4316;53.840;10.762;2023-09-18T00:59:36;18.80;1.00
8557;DHT22;4316;53.840;10.762;2023-09-18T01:02:02;18.80;1.00
8557;DHT22;4316;53.840;10.762;2023-09-18T01:04:29;18.90;1.00
8557;DHT22;4316;53.840;10.762;2023-09-18T01:06:55;18.90;1.00
8557;DHT22;4316;53.840;10.762;2023-09-18T01:09:23;18.90;1.00
8557;DHT22;4316;53.840;10.762;2023-09-18T01:12:08;18.90;1.00
8557;DHT22;4316;53.840;10.762;2023-09-18T01:14:42;18.90;1.00
8557;DHT22;4316;53.840;10.762;2023-09-18T01:17:10;19.00;1.00
8557;DHT22;4316;53.840;10.762;2023-09-18T01:22:06;18.90;1.00
8557;DHT22;4316;53.840;10.762;2023-09-18T01:24:34;18.90;1.00
8557;DHT22;4316;53.840;10.762;2023-09-18T01:27:00;18.80;1.00
8557;DHT22;4316;53.840;10.762;2023-09-18T01:29:26;18.80;1.00
8557;DHT22;4316;53.840;10.762;2023-09-18T01:31:52;18.80;1.00
8557;DHT22;4316;53.840;10.762;2023-09-18T01:34:33;18.80;1.00
8557;DHT22;4316;53.840;10.762;2023-09-18T01:37:03;18.70;1.00
8557;DHT22;4316;53.840;10.762;2023-09-18T01:39:31;18.70;1.00
8557;DHT22;4316;53.840;10.762;2023-09-18T01:42:04;18.80;1.00
8557;DHT22;4316;53.840;10.762;2023-09-18T01:44:35;18.80;1.00
8557;DHT22;4316;53.840;10.762;2023-09-18T01:47:06;18.80;1.00
8557;DHT22;4316;53.840;10.762;2023-09-18T01:49:37;18.80;1.00
8557;DHT22;4316;53.840;10.762;2023-09-18T01:52:04;18.80;1.00
8557;DHT22;4316;53.840;10.762;2023-09-18T01:54:30;18.80;1.00
8557;DHT22;4316;53.840;10.762;2023-09-18T01:56:56;18.80;1.00
8557;DHT22;4316;53.840;10.762;2023-09-18T01:59:23;18.70;1.00
8557;DHT22;4316;53.840;10.762;2023-09-18T02:01:49;18.70;1.00
8557;DHT22;4316;53.840;10.762;2023-09-18T02:04:16;18.70;1.00
8557;DHT22;4316;53.840;10.762;2023-09-18T02:06:42;18.70;1.00
8557;DHT22;4316;53.840;10.762;2023-09-18T02:09:08;18.60;1.00
8557;DHT22;4316;53.840;10.762;2023-09-18T02:11:38;18.60;1.00
8557;DHT22;4316;53.840;10.762;2023-09-18T02:14:04;18.50;1.00
8557;DHT22;4316;53.840;10.762;2023-09-18T02:16:32;18.50;1.00
8557;DHT22;4316;53.840;10.762;2023-09-18T02:18:58;18.40;1.00
8557;DHT22;4316;53.840;10.762;2023-09-18T02:21:23;18.30;1.00
8557;DHT22;4316;53.840;10.762;2023-09-18T02:23:50;18.30;1.00
8557;DHT22;4316;53.840;10.762;2023-09-18T02:26:17;18.30;1.00
8557;DHT22;4316;53.840;10.762;2023-09-18T02:28:42;18.20;1.00
8557;DHT22;4316;53.840;10.762;2023-09-18T02:31:08;18.20;1.00
8557;DHT22;4316;53.840;10.762;2023-09-18T02:33:34;18.10;1.00
8557;DHT22;4316;53.840;10.762;2023-09-18T02:36:00;18.20;1.00
8557;DHT22;4316;53.840;10.762;2023-09-18T02:38:27;18.10;1.00
8557;DHT22;4316;53.840;10.762;2023-09-18T02:40:53;18.10;1.00
8557;DHT22;4316;53.840;10.762;2023-09-18T02:43:20;18.10;1.00
8557;DHT22;4316;53.840;10.762;2023-09-18T02:45:46;18.10;1.00
8557;DHT22;4316;53.840;10.762;2023-09-18T02:48:12;18.10;1.00
8557;DHT22;4316;53.840;10.762;2023-09-18T02:50:37;18.10;1.00
8557;DHT22;4316;53.840;10.762;2023-09-18T02:53:06;18.00;1.00
8557;DHT22;4316;53.840;10.762;2023-09-18T02:55:32;18.00;1.00
8557;DHT22;4316;53.840;10.762;2023-09-18T02:57:58;18.10;1.00
8557;DHT22;4316;53.840;10.762;2023-09-18T03:00:24;18.10;1.00
8557;DHT22;4316;53.840;10.762;2023-09-18T03:02:50;18.10;1.00
8557;DHT22;4316;53.840;10.762;2023-09-18T03:05:15;18.10;1.00
8557;DHT22;4316;53.840;10.762;2023-09-18T03:07:41;18.10;1.00
8557;DHT22;4316;53.840;10.762;2023-09-18T03:10:07;18.20;1.00
8557;DHT22;4316;53.840;10.762;2023-09-18T03:12:33;18.20;1.00
8557;DHT22;4316;53.840;10.762;2023-09-18T03:14:59;18.10;1.00
8557;DHT22;4316;53.840;10.762;2023-09-18T03:17:25;18.10;1.00
8557;DHT22;4316;53.840;10.762;2023-09-18T03:19:51;18.00;1.00
8557;DHT22;4316;53.840;10.762;2023-09-18T03:22:17;18.10;1.00
8557;DHT22;4316;53.840;10.762;2023-09-18T03:24:42;18.00;1.00
8557;DHT22;4316;53.840;10.762;2023-09-18T03:27:08;18.10;1.00
8557;DHT22;4316;53.840;10.762;2023-09-18T03:29:34;18.10;1.00
8557;DHT22;4316;53.840;10.762;2023-09-18T03:32:00;18.00;1.00
8557;DHT22;4316;53.840;10.762;2023-09-18T03:34:25;18.00;1.00
8557;DHT22;4316;53.840;10.762;2023-09-18T03:36:54;17.90;1.00
8557;DHT22;4316;53.840;10.762;2023-09-18T03:39:19;17.90;1.00
8557;DHT22;4316;53.840;10.762;2023-09-18T03:41:45;17.90;1.00
8557;DHT22;4316;53.840;10.762;2023-09-18T03:44:11;17.90;1.00
8557;DHT22;4316;53.840;10.762;2023-09-18T03:46:37;17.80;1.00
8557;DHT22;4316;53.840;10.762;2023-09-18T03:49:02;17.80;1.00
8557;DHT22;4316;53.840;10.762;2023-09-18T03:51:29;17.80;1.00
8557;DHT22;4316;53.840;10.762;2023-09-18T03:53:58;17.80;1.00
8557;DHT22;4316;53.840;10.762;2023-09-18T03:56:23;17.90;1.00
8557;DHT22;4316;53.840;10.762;2023-09-18T03:58:49;17.90;1.00
8557;DHT22;4316;53.840;10.762;2023-09-18T04:01:15;17.80;1.00
8557;DHT22;4316;53.840;10.762;2023-09-18T04:03:41;17.80;1.00
8557;DHT22;4316;53.840;10.762;2023-09-18T04:06:07;17.80;1.00
8557;DHT22;4316;53.840;10.762;2023-09-18T04:08:33;17.80;1.00
8557;DHT22;4316;53.840;10.762;2023-09-18T04:11:00;17.80;1.00
8557;DHT22;4316;53.840;10.762;2023-09-18T04:13:25;17.90;1.00
8557;DHT22;4316;53.840;10.762;2023-09-18T04:15:52;17.90;1.00
8557;DHT22;4316;53.840;10.762;2023-09-18T04:18:23;17.90;1.00
8557;DHT22;4316;53.840;10.762;2023-09-18T04:20:49;17.90;1.00
8557;DHT22;4316;53.840;10.762;2023-09-18T04:23:21;17.90;1.00
8557;DHT22;4316;53.840;10.762;2023-09-18T04:25:48;17.90;1.00
8557;DHT22;4316;53.840;10.762;2023-09-18T04:28:18;17.90;1.00
8557;DHT22;4316;53.840;10.762;2023-09-18T04:30:45;17.80;1.00
8557;DHT22;4316;53.840;10.762;2023-09-18T04:33:13;17.80;1.00
8557;DHT22;4316;53.840;10.762;2023-09-18T04:35:38;17.70;1.00
8557;DHT22;4316;53.840;10.762;2023-09-18T04:38:07;17.70;1.00
8557;DHT22;4316;53.840;10.762;2023-09-18T04:40:34;17.80;1.00
8557;DHT22;4316;53.840;10.762;2023-09-18T04:43:00;17.80;1.00
8557;DHT22;4316;53.840;10.762;2023-09-18T04:45:26;17.80;1.00
8557;DHT22;4316;53.840;10.762;2023-09-18T04:47:52;17.80;1.00
8557;DHT22;4316;53.840;10.762;2023-09-18T04:50:18;17.80;1.00
8557;DHT22;4316;53.840;10.762;2023-09-18T04:52:44;17.80;1.00
8557;DHT22;4316;53.840;10.762;2023-09-18T04:55:13;17.80;1.00
8557;DHT22;4316;53.840;10.762;2023-09-18T04:57:38;17.80;1.00
8557;DHT22;4316;53.840;10.762;2023-09-18T05:00:04;17.80;1.00
8557;DHT22;4316;53.840;10.762;2023-09-18T05:02:34;17.80;1.00
8557;DHT22;4316;53.840;10.762;2023-09-18T05:05:00;17.70;1.00
8557;DHT22;4316;53.840;10.762;2023-09-18T05:07:26;17.70;1.00
8557;DHT22;4316;53.840;10.762;2023-09-18T05:09:52;17.70;1.00
8557;DHT22;4316;53.840;10.762;2023-09-18T05:12:17;17.70;1.00
8557;DHT22;4316;53.840;10.762;2023-09-18T05:14:43;17.70;1.00
8557;DHT22;4316;53.840;10.762;2023-09-18T05:17:13;17.70;1.00
8557;DHT22;4316;53.840;10.762;2023-09-18T05:19:39;17.60;1.00
8557;DHT22;4316;53.840;10.762;2023-09-18T05:22:05;17.70;1.00
8557;DHT22;4316;53.840;10.762;2023-09-18T05:24:31;17.70;1.00
8557;DHT22;4316;53.840;10.762;2023-09-18T05:26:56;17.70;1.00
8557;DHT22;4316;53.840;10.762;2023-09-18T05:29:22;17.70;1.00
8557;DHT22;4316;53.840;10.762;2023-09-18T05:31:48;17.70;1.00
8557;DHT22;4316;53.840;10.762;2023-09-18T05:34:13;17.80;1.00
8557;DHT22;4316;53.840;10.762;2023-09-18T05:36:39;17.80;1.00
8557;DHT22;4316;53.840;10.762;2023-09-18T05:39:05;17.70;1.00
8557;DHT22;4316;53.840;10.762;2023-09-18T05:41:32;17.80;1.00
8557;DHT22;4316;53.840;10.762;2023-09-18T05:43:57;17.90;1.00
8557;DHT22;4316;53.840;10.762;2023-09-18T05:46:23;17.90;1.00
8557;DHT22;4316;53.840;10.762;2023-09-18T05:48:49;18.00;1.00
8557;DHT22;4316;53.840;10.762;2023-09-18T05:51:14;18.00;1.00
8557;DHT22;4316;53.840;10.762;2023-09-18T05:53:40;18.10;1.00
8557;DHT22;4316;53.840;10.762;2023-09-18T05:56:05;18.10;1.00
8557;DHT22;4316;53.840;10.762;2023-09-18T05:58:32;18.20;1.00
8557;DHT22;4316;53.840;10.762;2023-09-18T06:01:00;18.20;1.00
8557;DHT22;4316;53.840;10.762;2023-09-18T06:03:29;18.30;1.00
8557;DHT22;4316;53.840;10.762;2023-09-18T06:05:56;18.30;1.00
8557;DHT22;4316;53.840;10.762;2023-09-18T06:08:21;18.30;1.00
8557;DHT22;4316;53.840;10.762;2023-09-18T06:10:49;18.40;1.00
8557;DHT22;4316;53.840;10.762;2023-09-18T06:13:14;18.50;1.00
8557;DHT22;4316;53.840;10.762;2023-09-18T06:15:40;18.50;1.00
8557;DHT22;4316;53.840;10.762;2023-09-18T06:18:05;18.70;1.00
8557;DHT22;4316;53.840;10.762;2023-09-18T06:20:32;18.90;1.00
8557;DHT22;4316;53.840;10.762;2023-09-18T06:22:57;18.90;1.00
8557;DHT22;4316;53.840;10.762;2023-09-18T06:25:23;18.90;99.90
8557;DHT22;4316;53.840;10.762;2023-09-18T06:27:49;18.90;99.90
8557;DHT22;4316;53.840;10.762;2023-09-18T06:30:15;19.00;99.90
8557;DHT22;4316;53.840;10.762;2023-09-18T06:32:41;19.00;99.90
8557;DHT22;4316;53.840;10.762;2023-09-18T06:35:07;19.00;99.90
8557;DHT22;4316;53.840;10.762;2023-09-18T06:37:32;19.10;99.90
8557;DHT22;4316;53.840;10.762;2023-09-18T06:39:58;19.30;99.90
8557;DHT22;4316;53.840;10.762;2023-09-18T06:42:23;19.50;99.90
8557;DHT22;4316;53.840;10.762;2023-09-18T06:44:56;19.80;99.90
8557;DHT22;4316;53.840;10.762;2023-09-18T06:47:24;20.20;99.90
8557;DHT22;4316;53.840;10.762;2023-09-18T06:49:50;20.60;99.90
8557;DHT22;4316;53.840;10.762;2023-09-18T06:52:17;20.80;99.90
8557;DHT22;4316;53.840;10.762;2023-09-18T06:54:42;20.90;99.90
8557;DHT22;4316;53.840;10.762;2023-09-18T06:57:09;21.00;99.90
8557;DHT22;4316;53.840;10.762;2023-09-18T06:59:35;21.30;99.90
8557;DHT22;4316;53.840;10.762;2023-09-18T07:02:01;21.40;99.90
8557;DHT22;4316;53.840;10.762;2023-09-18T07:04:27;21.60;99.90
8557;DHT22;4316;53.840;10.762;2023-09-18T07:06:53;21.60;99.90
8557;DHT22;4316;53.840;10.762;2023-09-18T07:09:19;21.80;99.90
8557;DHT22;4316;53.840;10.762;2023-09-18T07:11:45;21.90;99.90
8557;DHT22;4316;53.840;10.762;2023-09-18T07:14:10;22.10;99.90
8557;DHT22;4316;53.840;10.762;2023-09-18T07:16:36;22.30;99.90
8557;DHT22;4316;53.840;10.762;2023-09-18T07:19:01;22.20;99.90
8557;DHT22;4316;53.840;10.762;2023-09-18T07:21:30;22.20;99.90
8557;DHT22;4316;53.840;10.762;2023-09-18T07:23:56;22.10;99.90
8557;DHT22;4316;53.840;10.762;2023-09-18T07:26:22;22.20;99.90
8557;DHT22;4316;53.840;10.762;2023-09-18T07:28:47;22.30;99.90
8557;DHT22;4316;53.840;10.762;2023-09-18T07:31:13;22.30;96.10
8557;DHT22;4316;53.840;10.762;2023-09-18T07:33:40;22.30;99.20
8557;DHT22;4316;53.840;10.762;2023-09-18T07:36:06;22.20;99.90
8557;DHT22;4316;53.840;10.762;2023-09-18T07:38:32;22.20;99.90
8557;DHT22;4316;53.840;10.762;2023-09-18T07:40:58;22.60;99.90
8557;DHT22;4316;53.840;10.762;2023-09-18T07:43:24;22.90;90.80
8557;DHT22;4316;53.840;10.762;2023-09-18T07:45:50;23.10;10.40
8557;DHT22;4316;53.840;10.762;2023-09-18T07:48:16;23.40;1.00
8557;DHT22;4316;53.840;10.762;2023-09-18T07:50:45;23.60;1.00
8557;DHT22;4316;53.840;10.762;2023-09-18T07:53:11;23.90;1.00
8557;DHT22;4316;53.840;10.762;2023-09-18T07:55:37;24.10;99.90
8557;DHT22;4316;53.840;10.762;2023-09-18T07:58:03;24.50;99.90
8557;DHT22;4316;53.840;10.762;2023-09-18T08:00:30;24.70;99.90
8557;DHT22;4316;53.840;10.762;2023-09-18T08:02:55;24.90;93.70
8557;DHT22;4316;53.840;10.762;2023-09-18T08:05:26;25.20;99.90
8557;DHT22;4316;53.840;10.762;2023-09-18T08:07:57;25.60;1.00
8557;DHT22;4316;53.840;10.762;2023-09-18T08:10:25;25.70;1.00
8557;DHT22;4316;53.840;10.762;2023-09-18T08:12:50;25.60;77.70
8557;DHT22;4316;53.840;10.762;2023-09-18T08:15:19;25.50;99.90
8557;DHT22;4316;53.840;10.762;2023-09-18T08:17:46;25.40;99.90
8557;DHT22;4316;53.840;10.762;2023-09-18T08:20:12;25.30;99.90
8557;DHT22;4316;53.840;10.762;2023-09-18T08:22:39;25.20;99.90
8557;DHT22;4316;53.840;10.762;2023-09-18T08:25:06;25.30;99.90
8557;DHT22;4316;53.840;10.762;2023-09-18T08:27:37;25.30;99.90
8557;DHT22;4316;53.840;10.762;2023-09-18T08:30:07;25.30;99.90
8557;DHT22;4316;53.840;10.762;2023-09-18T08:32:34;25.00;1.00
8557;DHT22;4316;53.840;10.762;2023-09-18T08:34:59;24.80;1.00
8557;DHT22;4316;53.840;10.762;2023-09-18T08:37:27;24.60;34.40
8557;DHT22;4316;53.840;10.762;2023-09-18T08:39:53;24.30;99.90
8557;DHT22;4316;53.840;10.762;2023-09-18T08:42:20;24.50;73.20
8557;DHT22;4316;53.840;10.762;2023-09-18T08:44:48;24.40;29.50
8557;DHT22;4316;53.840;10.762;2023-09-18T08:47:14;24.30;95.30
8557;DHT22;4316;53.840;10.762;2023-09-18T08:49:41;24.20;1.00
8557;DHT22;4316;53.840;10.762;2023-09-18T08:52:08;24.30;81.90
8557;DHT22;4316;53.840;10.762;2023-09-18T08:54:34;24.20;21.90
8557;DHT22;4316;53.840;10.762;2023-09-18T08:57:00;24.00;99.90
8557;DHT22;4316;53.840;10.762;2023-09-18T08:59:26;23.90;99.90
8557;DHT22;4316;53.840;10.762;2023-09-18T09:01:53;23.80;65.60
8557;DHT22;4316;53.840;10.762;2023-09-18T09:04:18;23.70;99.90
8557;DHT22;4316;53.840;10.762;2023-09-18T09:06:44;23.70;99.90
8557;DHT22;4316;53.840;10.762;2023-09-18T09:09:10;23.70;99.90
8557;DHT22;4316;53.840;10.762;2023-09-18T09:11:38;23.70;99.90
8557;DHT22;4316;53.840;10.762;2023-09-18T09:14:11;23.70;99.90
8557;DHT22;4316;53.840;10.762;2023-09-18T09:16:41;23.70;99.90
8557;DHT22;4316;53.840;10.762;2023-09-18T09:19:12;23.70;99.90
8557;DHT22;4316;53.840;10.762;2023-09-18T09:21:39;23.70;99.90
8557;DHT22;4316;53.840;10.762;2023-09-18T09:24:05;23.70;99.90
8557;DHT22;4316;53.840;10.762;2023-09-18T09:26:30;23.70;99.90
8557;DHT22;4316;53.840;10.762;2023-09-18T09:28:56;23.50;99.90
8557;DHT22;4316;53.840;10.762;2023-09-18T09:31:29;23.50;99.90
8557;DHT22;4316;53.840;10.762;2023-09-18T09:33:56;23.50;99.90
8557;DHT22;4316;53.840;10.762;2023-09-18T09:36:23;23.50;99.90
8557;DHT22;4316;53.840;10.762;2023-09-18T09:38:55;23.70;99.90
8557;DHT22;4316;53.840;10.762;2023-09-18T09:41:22;23.80;99.90
8557;DHT22;4316;53.840;10.762;2023-09-18T09:43:47;23.70;99.90
8557;DHT22;4316;53.840;10.762;2023-09-18T09:46:17;23.80;99.90
8557;DHT22;4316;53.840;10.762;2023-09-18T09:48:59;23.60;99.90
8557;DHT22;4316;53.840;10.762;2023-09-18T09:51:27;23.50;99.90
8557;DHT22;4316;53.840;10.762;2023-09-18T09:53:52;23.50;99.90
8557;DHT22;4316;53.840;10.762;2023-09-18T09:56:18;23.40;99.90
8557;DHT22;4316;53.840;10.762;2023-09-18T09:58:44;23.30;99.90
8557;DHT22;4316;53.840;10.762;2023-09-18T10:01:12;23.20;1.00
8557;DHT22;4316;53.840;10.762;2023-09-18T10:03:44;23.30;1.00
8557;DHT22;4316;53.840;10.762;2023-09-18T10:06:10;23.50;1.00
8557;DHT22;4316;53.840;10.762;2023-09-18T10:08:39;23.50;1.00
8557;DHT22;4316;53.840;10.762;2023-09-18T10:11:07;23.60;99.90
8557;DHT22;4316;53.840;10.762;2023-09-18T10:13:58;23.70;99.90
8557;DHT22;4316;53.840;10.762;2023-09-18T10:16:26;24.10;99.90
8557;DHT22;4316;53.840;10.762;2023-09-18T10:19:14;24.30;99.90
8557;DHT22;4316;53.840;10.762;2023-09-18T10:24:41;24.80;99.90
8557;DHT22;4316;53.840;10.762;2023-09-18T10:27:12;24.90;99.90
8557;DHT22;4316;53.840;10.762;2023-09-18T10:29:43;24.90;1.00
8557;DHT22;4316;53.840;10.762;2023-09-18T10:32:11;24.90;18.10
8557;DHT22;4316;53.840;10.762;2023-09-18T10:34:38;24.50;99.90
8557;DHT22;4316;53.840;10.762;2023-09-18T10:37:04;24.40;99.90
8557;DHT22;4316;53.840;10.762;2023-09-18T10:39:38;24.20;99.90
8557;DHT22;4316;53.840;10.762;2023-09-18T10:42:07;24.20;99.90
8557;DHT22;4316;53.840;10.762;2023-09-18T10:44:33;24.10;99.90
8557;DHT22;4316;53.840;10.762;2023-09-18T10:47:02;23.90;99.90
8557;DHT22;4316;53.840;10.762;2023-09-18T10:49:28;24.00;99.90
8557;DHT22;4316;53.840;10.762;2023-09-18T10:51:55;23.80;99.90
8557;DHT22;4316;53.840;10.762;2023-09-18T10:54:23;23.90;99.90
8557;DHT22;4316;53.840;10.762;2023-09-18T10:56:50;23.90;99.90
8557;DHT22;4316;53.840;10.762;2023-09-18T10:59:16;23.90;99.90
8557;DHT22;4316;53.840;10.762;2023-09-18T11:01:43;24.00;99.90
8557;DHT22;4316;53.840;10.762;2023-09-18T11:04:10;24.00;99.90
8557;DHT22;4316;53.840;10.762;2023-09-18T11:14:23;23.80;99.90
8557;DHT22;4316;53.840;10.762;2023-09-18T11:17:05;23.90;99.90
8557;DHT22;4316;53.840;10.762;2023-09-18T11:19:31;23.90;1.00
8557;DHT22;4316;53.840;10.762;2023-09-18T11:22:07;23.90;1.00
8557;DHT22;4316;53.840;10.762;2023-09-18T11:24:35;23.90;1.00
8557;DHT22;4316;53.840;10.762;2023-09-18T11:27:01;23.80;1.00
8557;DHT22;4316;53.840;10.762;2023-09-18T11:29:27;23.70;1.00
8557;DHT22;4316;53.840;10.762;2023-09-18T11:31:55;23.80;1.00
8557;DHT22;4316;53.840;10.762;2023-09-18T11:34:26;24.00;1.00
8557;DHT22;4316;53.840;10.762;2023-09-18T11:36:54;24.10;1.00
8557;DHT22;4316;53.840;10.762;2023-09-18T11:39:37;24.30;1.00
8557;DHT22;4316;53.840;10.762;2023-09-18T11:42:32;24.40;99.90
8557;DHT22;4316;53.840;10.762;2023-09-18T11:44:58;24.40;99.90
8557;DHT22;4316;53.840;10.762;2023-09-18T11:47:24;24.50;99.90
8557;DHT22;4316;53.840;10.762;2023-09-18T11:49:53;24.50;99.90
8557;DHT22;4316;53.840;10.762;2023-09-18T11:52:21;24.60;99.90
8557;DHT22;4316;53.840;10.762;2023-09-18T11:54:47;24.60;99.90
8557;DHT22;4316;53.840;10.762;2023-09-18T11:57:13;24.70;99.90
8557;DHT22;4316;53.840;10.762;2023-09-18T11:59:41;24.80;99.90
8557;DHT22;4316;53.840;10.762;2023-09-18T12:02:08;25.00;99.90
8557;DHT22;4316;53.840;10.762;2023-09-18T12:04:35;24.90;99.90
8557;DHT22;4316;53.840;10.762;2023-09-18T12:07:03;24.90;99.90
8557;DHT22;4316;53.840;10.762;2023-09-18T12:09:35;24.80;99.90
8557;DHT22;4316;53.840;10.762;2023-09-18T12:12:04;25.00;99.90
8557;DHT22;4316;53.840;10.762;2023-09-18T12:14:34;25.20;99.90
8557;DHT22;4316;53.840;10.762;2023-09-18T12:17:01;25.30;99.90
8557;DHT22;4316;53.840;10.762;2023-09-18T12:19:28;25.30;99.90
8557;DHT22;4316;53.840;10.762;2023-09-18T12:21:54;25.40;99.90
8557;DHT22;4316;53.840;10.762;2023-09-18T12:24:26;25.50;99.90
8557;DHT22;4316;53.840;10.762;2023-09-18T12:26:54;25.60;94.60
8557;DHT22;4316;53.840;10.762;2023-09-18T12:29:20;25.70;89.70
8557;DHT22;4316;53.840;10.762;2023-09-18T12:31:46;25.80;1.00
8557;DHT22;4316;53.840;10.762;2023-09-18T12:34:19;25.70;1.00
8557;DHT22;4316;53.840;10.762;2023-09-18T12:36:49;25.70;93.50
8557;DHT22;4316;53.840;10.762;2023-09-18T12:39:16;25.50;60.10
8557;DHT22;4316;53.840;10.762;2023-09-18T12:41:45;25.30;57.90
8557;DHT22;4316;53.840;10.762;2023-09-18T12:44:12;25.30;77.20
8557;DHT22;4316;53.840;10.762;2023-09-18T12:46:40;25.30;99.90
8557;DHT22;4316;53.840;10.762;2023-09-18T12:49:22;25.20;99.90
8557;DHT22;4316;53.840;10.762;2023-09-18T12:51:55;25.10;99.90
8557;DHT22;4316;53.840;10.762;2023-09-18T12:54:20;25.10;99.90
8557;DHT22;4316;53.840;10.762;2023-09-18T12:56:46;24.80;99.90
8557;DHT22;4316;53.840;10.762;2023-09-18T12:59:12;24.80;99.90
8557;DHT22;4316;53.840;10.762;2023-09-18T13:01:38;24.90;99.90
8557;DHT22;4316;53.840;10.762;2023-09-18T13:04:04;25.00;99.90
8557;DHT22;4316;53.840;10.762;2023-09-18T13:06:31;25.00;99.90
8557;DHT22;4316;53.840;10.762;2023-09-18T13:09:18;25.00;99.90
8557;DHT22;4316;53.840;10.762;2023-09-18T13:11:57;25.00;99.90
8557;DHT22;4316;53.840;10.762;2023-09-18T13:14:24;25.00;99.90
8557;DHT22;4316;53.840;10.762;2023-09-18T13:16:50;25.00;99.90
8557;DHT22;4316;53.840;10.762;2023-09-18T13:19:17;25.10;99.90
8557;DHT22;4316;53.840;10.762;2023-09-18T13:21:47;25.20;99.90
8557;DHT22;4316;53.840;10.762;2023-09-18T13:26:53;25.20;99.90
8557;DHT22;4316;53.840;10.762;2023-09-18T13:29:18;25.20;99.90
8557;DHT22;4316;53.840;10.762;2023-09-18T13:31:44;25.40;99.90
8557;DHT22;4316;53.840;10.762;2023-09-18T13:34:10;25.60;99.90
8557;DHT22;4316;53.840;10.762;2023-09-18T13:36:36;25.70;99.90
8557;DHT22;4316;53.840;10.762;2023-09-18T13:39:03;25.90;99.90
8557;DHT22;4316;53.840;10.762;2023-09-18T13:41:29;26.00;1.00
8557;DHT22;4316;53.840;10.762;2023-09-18T13:43:54;26.00;1.00
8557;DHT22;4316;53.840;10.762;2023-09-18T13:46:21;25.90;1.00
8557;DHT22;4316;53.840;10.762;2023-09-18T13:48:47;25.90;1.00
8557;DHT22;4316;53.840;10.762;2023-09-18T13:51:13;25.90;1.00
8557;DHT22;4316;53.840;10.762;2023-09-18T13:53:39;25.80;1.00
8557;DHT22;4316;53.840;10.762;2023-09-18T13:56:08;25.70;1.00
8557;DHT22;4316;53.840;10.762;2023-09-18T13:58:34;25.70;1.00
8557;DHT22;4316;53.840;10.762;2023-09-18T14:01:01;25.80;1.00
8557;DHT22;4316;53.840;10.762;2023-09-18T14:03:27;25.70;1.00
8557;DHT22;4316;53.840;10.762;2023-09-18T14:05:52;25.60;17.90
8557;DHT22;4316;53.840;10.762;2023-09-18T14:08:18;25.50;16.90
8557;DHT22;4316;53.840;10.762;2023-09-18T14:10:44;25.50;99.30
8557;DHT22;4316;53.840;10.762;2023-09-18T14:13:10;25.30;5.50
8557;DHT22;4316;53.840;10.762;2023-09-18T14:15:35;25.20;99.90
8557;DHT22;4316;53.840;10.762;2023-09-18T14:18:02;25.10;99.90
8557;DHT22;4316;53.840;10.762;2023-09-18T14:20:28;25.00;99.90
8557;DHT22;4316;53.840;10.762;2023-09-18T14:22:54;25.00;99.90
8557;DHT22;4316;53.840;10.762;2023-09-18T14:25:20;25.00;99.90
8557;DHT22;4316;53.840;10.762;2023-09-18T14:27:47;25.00;99.90
8557;DHT22;4316;53.840;10.762;2023-09-18T14:30:13;25.00;99.90
8557;DHT22;4316;53.840;10.762;2023-09-18T14:32:39;25.20;99.90
8557;DHT22;4316;53.840;10.762;2023-09-18T14:35:05;25.30;70.40
8557;DHT22;4316;53.840;10.762;2023-09-18T14:37:33;25.40;16.40
8557;DHT22;4316;53.840;10.762;2023-09-18T14:39:59;25.50;1.00
8557;DHT22;4316;53.840;10.762;2023-09-18T14:42:27;25.50;1.00
8557;DHT22;4316;53.840;10.762;2023-09-18T14:44:53;25.60;1.00
8557;DHT22;4316;53.840;10.762;2023-09-18T14:47:18;25.70;1.00
8557;DHT22;4316;53.840;10.762;2023-09-18T14:49:44;25.80;99.90
8557;DHT22;4316;53.840;10.762;2023-09-18T14:52:15;25.70;99.90
8557;DHT22;4316;53.840;10.762;2023-09-18T14:54:41;25.70;99.90
8557;DHT22;4316;53.840;10.762;2023-09-18T14:57:07;25.60;99.90
8557;DHT22;4316;53.840;10.762;2023-09-18T14:59:33;25.60;99.90
8557;DHT22;4316;53.840;10.762;2023-09-18T15:01:58;25.40;1.00
8557;DHT22;4316;53.840;10.762;2023-09-18T15:04:24;25.40;1.00
8557;DHT22;4316;53.840;10.762;2023-09-18T15:06:49;25.30;1.00
8557;DHT22;4316;53.840;10.762;2023-09-18T15:09:15;25.30;1.00
8557;DHT22;4316;53.840;10.762;2023-09-18T15:11:41;25.40;99.90
8557;DHT22;4316;53.840;10.762;2023-09-18T15:14:07;25.30;99.90
8557;DHT22;4316;53.840;10.762;2023-09-18T15:16:35;25.10;1.00
8557;DHT22;4316;53.840;10.762;2023-09-18T15:19:01;25.10;1.00
8557;DHT22;4316;53.840;10.762;2023-09-18T15:21:29;25.00;1.00
8557;DHT22;4316;53.840;10.762;2023-09-18T15:23:55;25.00;1.00
8557;DHT22;4316;53.840;10.762;2023-09-18T15:26:21;25.00;1.00
8557;DHT22;4316;53.840;10.762;2023-09-18T15:28:46;25.10;1.00
8557;DHT22;4316;53.840;10.762;2023-09-18T15:31:13;25.10;1.00
8557;DHT22;4316;53.840;10.762;2023-09-18T15:33:38;25.10;1.00
8557;DHT22;4316;53.840;10.762;2023-09-18T15:36:06;25.20;1.00
8557;DHT22;4316;53.840;10.762;2023-09-18T15:38:32;25.20;1.00
8557;DHT22;4316;53.840;10.762;2023-09-18T15:40:57;25.10;23.70
8557;DHT22;4316;53.840;10.762;2023-09-18T15:43:25;25.10;13.30
8557;DHT22;4316;53.840;10.762;2023-09-18T15:45:51;25.10;1.00
8557;DHT22;4316;53.840;10.762;2023-09-18T15:48:18;25.00;1.00
8557;DHT22;4316;53.840;10.762;2023-09-18T15:50:44;24.90;1.00
8557;DHT22;4316;53.840;10.762;2023-09-18T15:53:10;24.90;1.00
8557;DHT22;4316;53.840;10.762;2023-09-18T15:55:36;24.80;1.00
8557;DHT22;4316;53.840;10.762;2023-09-18T15:58:02;24.70;1.00
8557;DHT22;4316;53.840;10.762;2023-09-18T16:00:28;24.60;1.00
8557;DHT22;4316;53.840;10.762;2023-09-18T16:02:54;24.60;35.50
8557;DHT22;4316;53.840;10.762;2023-09-18T16:05:21;24.50;89.30
8557;DHT22;4316;53.840;10.762;2023-09-18T16:07:52;24.50;99.90
8557;DHT22;4316;53.840;10.762;2023-09-18T16:10:24;24.40;34.90